sensor_id;sensor_type;location;lat;lon;timestamp;temperature;humidity
20057;DHT22;10189;49.546;7.906;2022-10-10T00:00:47;5.00;99.90
20057;DHT22;10189;49.546;7.906;2022-10-10T00:03:14;4.90;99.90
20057;DHT22;10189;49.546;7.906;2022-10-10T00:05:41;4.90;99.90
20057;DHT22;10189;49.546;7.906;2022-10-10T00:08:07;4.90;99.90
20057;DHT22;10189;49.546;7.906;2022-10-10T00:10:33;4.80;99.90
20057;DHT22;10189;49.546;7.906;2022-10-10T00:13:00;4.80;99.90
20057;DHT22;10189;49.546;7.906;2022-10-10T00:15:26;4.80;99.90
20057;DHT22;10189;49.546;7.906;2022-10-10T00:17:53;4.80;99.90
20057;DHT22;10189;49.546;7.906;2022-10-10T00:20:19;4.80;99.90
20057;DHT22;10189;49.546;7.906;2022-10-10T00:22:46;4.80;99.90
20057;DHT22;10189;49.546;7.906;2022-10-10T00:25:13;4.80;99.90
20057;DHT22;10189;49.546;7.906;2022-10-10T00:27:39;4.70;99.90
20057;DHT22;10189;49.546;7.906;2022-10-10T00:30:07;4.70;99.90
20057;DHT22;10189;49.546;7.906;2022-10-10T00:32:34;4.60;99.90
20057;DHT22;10189;49.546;7.906;2022-10-10T00:35:01;4.60;99.90
20057;DHT22;10189;49.546;7.906;2022-10-10T00:37:27;4.50;99.90
20057;DHT22;10189;49.546;7.906;2022-10-10T00:39:52;4.50;99.90
20057;DHT22;10189;49.546;7.906;2022-10-10T00:42:19;4.50;99.90
20057;DHT22;10189;49.546;7.906;2022-10-10T00:44:46;4.50;99.90
20057;DHT22;10189;49.546;7.906;2022-10-10T00:47:57;4.50;99.90
20057;DHT22;10189;49.546;7.906;2022-10-10T00:53:20;4.50;99.90
20057;DHT22;10189;49.546;7.906;2022-10-10T00:55:51;4.40;99.90
20057;DHT22;10189;49.546;7.906;2022-10-10T00:58:18;4.40;99.90
20057;DHT22;10189;49.546;7.906;2022-10-10T01:00:46;4.40;99.90
20057;DHT22;10189;49.546;7.906;2022-10-10T01:03:12;4.40;99.90
20057;DHT22;10189;49.546;7.906;2022-10-10T01:05:39;4.40;99.90
20057;DHT22;10189;49.546;7.906;2022-10-10T01:08:06;4.30;99.90
20057;DHT22;10189;49.546;7.906;2022-10-10T01:16:44;4.40;99.90
20057;DHT22;10189;49.546;7.906;2022-10-10T01:20:25;4.40;99.90
20057;DHT22;10189;49.546;7.906;2022-10-10T01:22:31;4.40;99.90
20057;DHT22;10189;49.546;7.906;2022-10-10T01:28:39;4.30;99.90
20057;DHT22;10189;49.546;7.906;2022-10-10T01:31:08;4.20;99.90
20057;DHT22;10189;49.546;7.906;2022-10-10T01:36:25;4.10;99.90
20057;DHT22;10189;49.546;7.906;2022-10-10T01:39:39;4.10;99.90
20057;DHT22;10189;49.546;7.906;2022-10-10T01:44:57;4.00;99.90
20057;DHT22;10189;49.546;7.906;2022-10-10T01:47:23;4.00;99.90
20057;DHT22;10189;49.546;7.906;2022-10-10T01:49:56;4.00;99.90
20057;DHT22;10189;49.546;7.906;2022-10-10T01:52:47;4.00;99.90
20057;DHT22;10189;49.546;7.906;2022-10-10T02:07:04;3.90;99.90
20057;DHT22;10189;49.546;7.906;2022-10-10T02:09:37;3.90;99.90
20057;DHT22;10189;49.546;7.906;2022-10-10T02:12:06;3.80;99.90
20057;DHT22;10189;49.546;7.906;2022-10-10T02:14:47;3.90;99.90
20057;DHT22;10189;49.546;7.906;2022-10-10T02:17:16;3.90;99.90
20057;DHT22;10189;49.546;7.906;2022-10-10T02:19:47;3.90;99.90
20057;DHT22;10189;49.546;7.906;2022-10-10T02:22:18;3.90;99.90
20057;DHT22;10189;49.546;7.906;2022-10-10T02:24:46;3.90;99.90
20057;DHT22;10189;49.546;7.906;2022-10-10T02:30:11;3.90;99.90
20057;DHT22;10189;49.546;7.906;2022-10-10T02:32:42;3.90;99.90
20057;DHT22;10189;49.546;7.906;2022-10-10T02:35:17;3.90;99.90
20057;DHT22;10189;49.546;7.906;2022-10-10T02:37:48;3.90;99.90
20057;DHT22;10189;49.546;7.906;2022-10-10T02:40:19;3.90;99.90
20057;DHT22;10189;49.546;7.906;2022-10-10T02:42:49;3.80;99.90
20057;DHT22;10189;49.546;7.906;2022-10-10T02:45:18;3.80;99.90
20057;DHT22;10189;49.546;7.906;2022-10-10T02:47:45;3.80;99.90
20057;DHT22;10189;49.546;7.906;2022-10-10T02:50:11;3.80;99.90
20057;DHT22;10189;49.546;7.906;2022-10-10T02:52:37;3.70;99.90
20057;DHT22;10189;49.546;7.906;2022-10-10T02:55:04;3.70;99.90
20057;DHT22;10189;49.546;7.906;2022-10-10T02:57:30;3.70;99.90
20057;DHT22;10189;49.546;7.906;2022-10-10T02:59:56;3.70;99.90
20057;DHT22;10189;49.546;7.906;2022-10-10T03:02:22;3.60;99.90
20057;DHT22;10189;49.546;7.906;2022-10-10T03:04:48;3.60;99.90
20057;DHT22;10189;49.546;7.906;2022-10-10T03:07:14;3.50;99.90
20057;DHT22;10189;49.546;7.906;2022-10-10T03:09:39;3.50;99.90
20057;DHT22;10189;49.546;7.906;2022-10-10T03:12:05;3.50;99.90
20057;DHT22;10189;49.546;7.906;2022-10-10T03:14:31;3.40;99.90
20057;DHT22;10189;49.546;7.906;2022-10-10T03:16:57;3.50;99.90
20057;DHT22;10189;49.546;7.906;2022-10-10T03:19:23;3.50;99.90
20057;DHT22;10189;49.546;7.906;2022-10-10T03:21:49;3.50;99.90
20057;DHT22;10189;49.546;7.906;2022-10-10T03:24:15;3.40;99.90
20057;DHT22;10189;49.546;7.906;2022-10-10T03:26:41;3.40;99.90
20057;DHT22;10189;49.546;7.906;2022-10-10T03:29:07;3.40;99.90
20057;DHT22;10189;49.546;7.906;2022-10-10T03:31:33;3.40;99.90
20057;DHT22;10189;49.546;7.906;2022-10-10T03:33:58;3.40;99.90
20057;DHT22;10189;49.546;7.906;2022-10-10T03:36:24;3.40;99.90
20057;DHT22;10189;49.546;7.906;2022-10-10T03:38:51;3.40;99.90
20057;DHT22;10189;49.546;7.906;2022-10-10T03:41:17;3.40;99.90
20057;DHT22;10189;49.546;7.906;2022-10-10T03:43:43;3.40;99.90
20057;DHT22;10189;49.546;7.906;2022-10-10T03:46:08;3.40;99.90
20057;DHT22;10189;49.546;7.906;2022-10-10T03:48:34;3.40;99.90
20057;DHT22;10189;49.546;7.906;2022-10-10T03:51:00;3.30;99.90
20057;DHT22;10189;49.546;7.906;2022-10-10T03:53:26;3.30;99.90
20057;DHT22;10189;49.546;7.906;2022-10-10T03:55:52;3.30;99.90
20057;DHT22;10189;49.546;7.906;2022-10-10T03:58:19;3.30;99.90
20057;DHT22;10189;49.546;7.906;2022-10-10T04:00:55;3.30;99.90
20057;DHT22;10189;49.546;7.906;2022-10-10T04:03:23;3.40;99.90
20057;DHT22;10189;49.546;7.906;2022-10-10T04:05:49;3.30;99.90
20057;DHT22;10189;49.546;7.906;2022-10-10T04:08:16;3.30;99.90
20057;DHT22;10189;49.546;7.906;2022-10-10T04:10:43;3.30;99.90
20057;DHT22;10189;49.546;7.906;2022-10-10T04:13:09;3.30;99.90
20057;DHT22;10189;49.546;7.906;2022-10-10T04:15:35;3.30;99.90
20057;DHT22;10189;49.546;7.906;2022-10-10T04:18:01;3.30;99.90
20057;DHT22;10189;49.546;7.906;2022-10-10T04:20:27;3.30;99.90
20057;DHT22;10189;49.546;7.906;2022-10-10T04:22:53;3.40;99.90
20057;DHT22;10189;49.546;7.906;2022-10-10T04:25:19;3.30;99.90
20057;DHT22;10189;49.546;7.906;2022-10-10T04:27:45;3.30;99.90
20057;DHT22;10189;49.546;7.906;2022-10-10T04:30:11;3.30;99.90
20057;DHT22;10189;49.546;7.906;2022-10-10T04:32:37;3.20;99.90
20057;DHT22;10189;49.546;7.906;2022-10-10T04:35:04;3.20;99.90
20057;DHT22;10189;49.546;7.906;2022-10-10T04:37:30;3.10;99.90
20057;DHT22;10189;49.546;7.906;2022-10-10T04:39:56;3.10;99.90
20057;DHT22;10189;49.546;7.906;2022-10-10T04:42:22;3.00;99.90
20057;DHT22;10189;49.546;7.906;2022-10-10T04:44:48;3.00;99.90
20057;DHT22;10189;49.546;7.906;2022-10-10T04:47:13;2.90;99.90
20057;DHT22;10189;49.546;7.906;2022-10-10T04:49:39;3.00;99.90
20057;DHT22;10189;49.546;7.906;2022-10-10T04:52:09;2.90;99.90
20057;DHT22;10189;49.546;7.906;2022-10-10T04:54:36;2.90;99.90
20057;DHT22;10189;49.546;7.906;2022-10-10T04:57:02;2.90;99.90
20057;DHT22;10189;49.546;7.906;2022-10-10T04:59:28;2.90;99.90
20057;DHT22;10189;49.546;7.906;2022-10-10T05:01:54;2.90;99.90
20057;DHT22;10189;49.546;7.906;2022-10-10T05:04:20;3.00;99.90
20057;DHT22;10189;49.546;7.906;2022-10-10T05:06:46;3.00;99.90
20057;DHT22;10189;49.546;7.906;2022-10-10T05:09:12;3.00;99.90
20057;DHT22;10189;49.546;7.906;2022-10-10T05:11:38;3.00;99.90
20057;DHT22;10189;49.546;7.906;2022-10-10T05:14:04;3.00;99.90
20057;DHT22;10189;49.546;7.906;2022-10-10T05:16:30;3.00;99.90
20057;DHT22;10189;49.546;7.906;2022-10-10T05:18:55;3.00;99.90
20057;DHT22;10189;49.546;7.906;2022-10-10T05:21:23;3.10;99.90
20057;DHT22;10189;49.546;7.906;2022-10-10T05:23:49;3.10;99.90
20057;DHT22;10189;49.546;7.906;2022-10-10T05:26:15;3.10;99.90
20057;DHT22;10189;49.546;7.906;2022-10-10T05:28:41;3.00;99.90
20057;DHT22;10189;49.546;7.906;2022-10-10T05:31:06;3.00;99.90
20057;DHT22;10189;49.546;7.906;2022-10-10T05:33:33;3.00;99.90
20057;DHT22;10189;49.546;7.906;2022-10-10T05:36:06;3.10;99.90
20057;DHT22;10189;49.546;7.906;2022-10-10T05:38:35;3.10;99.90
20057;DHT22;10189;49.546;7.906;2022-10-10T05:41:02;3.10;99.90
20057;DHT22;10189;49.546;7.906;2022-10-10T05:43:28;3.20;99.90
20057;DHT22;10189;49.546;7.906;2022-10-10T05:45:55;3.20;99.90
20057;DHT22;10189;49.546;7.906;2022-10-10T05:48:21;3.30;99.90
20057;DHT22;10189;49.546;7.906;2022-10-10T05:50:49;3.40;99.90
20057;DHT22;10189;49.546;7.906;2022-10-10T05:53:18;3.40;99.90
20057;DHT22;10189;49.546;7.906;2022-10-10T05:55:45;3.50;99.90
20057;DHT22;10189;49.546;7.906;2022-10-10T05:58:12;3.60;99.90
20057;DHT22;10189;49.546;7.906;2022-10-10T06:00:40;3.70;99.90
20057;DHT22;10189;49.546;7.906;2022-10-10T06:03:06;3.80;99.90
20057;DHT22;10189;49.546;7.906;2022-10-10T06:05:37;3.90;99.90
20057;DHT22;10189;49.546;7.906;2022-10-10T06:08:03;4.00;99.90
20057;DHT22;10189;49.546;7.906;2022-10-10T06:10:29;4.10;99.90
20057;DHT22;10189;49.546;7.906;2022-10-10T06:12:57;4.20;99.90
20057;DHT22;10189;49.546;7.906;2022-10-10T06:15:23;4.40;99.90
20057;DHT22;10189;49.546;7.906;2022-10-10T06:17:49;4.50;99.90
20057;DHT22;10189;49.546;7.906;2022-10-10T06:20:15;4.70;99.90
20057;DHT22;10189;49.546;7.906;2022-10-10T06:22:41;4.80;99.90
20057;DHT22;10189;49.546;7.906;2022-10-10T06:25:07;4.90;99.90
20057;DHT22;10189;49.546;7.906;2022-10-10T06:27:34;5.10;99.90
20057;DHT22;10189;49.546;7.906;2022-10-10T06:29:59;5.20;99.90
20057;DHT22;10189;49.546;7.906;2022-10-10T06:32:25;5.30;99.90
20057;DHT22;10189;49.546;7.906;2022-10-10T06:34:51;5.40;99.90
20057;DHT22;10189;49.546;7.906;2022-10-10T06:37:17;5.50;99.90
20057;DHT22;10189;49.546;7.906;2022-10-10T06:39:43;5.50;99.90
20057;DHT22;10189;49.546;7.906;2022-10-10T06:42:09;5.50;99.90
20057;DHT22;10189;49.546;7.906;2022-10-10T06:44:35;5.50;99.90
20057;DHT22;10189;49.546;7.906;2022-10-10T06:47:00;5.50;99.90
20057;DHT22;10189;49.546;7.906;2022-10-10T06:49:26;5.50;99.90
20057;DHT22;10189;49.546;7.906;2022-10-10T06:51:54;5.60;99.90
20057;DHT22;10189;49.546;7.906;2022-10-10T06:54:19;5.70;99.90
20057;DHT22;10189;49.546;7.906;2022-10-10T06:56:45;5.90;99.90
20057;DHT22;10189;49.546;7.906;2022-10-10T06:59:11;6.00;99.90
20057;DHT22;10189;49.546;7.906;2022-10-10T07:01:37;6.10;99.90
20057;DHT22;10189;49.546;7.906;2022-10-10T07:04:03;6.20;99.90
20057;DHT22;10189;49.546;7.906;2022-10-10T07:06:30;6.20;99.90
20057;DHT22;10189;49.546;7.906;2022-10-10T07:08:56;6.40;99.90
20057;DHT22;10189;49.546;7.906;2022-10-10T07:11:22;6.50;99.90
20057;DHT22;10189;49.546;7.906;2022-10-10T07:13:49;6.60;99.90
20057;DHT22;10189;49.546;7.906;2022-10-10T07:16:18;6.70;99.90
20057;DHT22;10189;49.546;7.906;2022-10-10T07:18:44;6.90;99.90
20057;DHT22;10189;49.546;7.906;2022-10-10T07:21:10;7.10;99.90
20057;DHT22;10189;49.546;7.906;2022-10-10T07:23:36;7.20;99.90
20057;DHT22;10189;49.546;7.906;2022-10-10T07:26:04;7.20;99.90
20057;DHT22;10189;49.546;7.906;2022-10-10T07:28:32;7.20;99.50
20057;DHT22;10189;49.546;7.906;2022-10-10T07:31:01;7.20;99.80
20057;DHT22;10189;49.546;7.906;2022-10-10T07:33:38;7.40;99.90
20057;DHT22;10189;49.546;7.906;2022-10-10T07:36:06;7.60;99.90
20057;DHT22;10189;49.546;7.906;2022-10-10T07:38:33;7.80;99.10
20057;DHT22;10189;49.546;7.906;2022-10-10T07:40:59;8.10;99.90
20057;DHT22;10189;49.546;7.906;2022-10-10T07:43:28;8.20;99.90
20057;DHT22;10189;49.546;7.906;2022-10-10T07:45:54;8.40;99.90
20057;DHT22;10189;49.546;7.906;2022-10-10T07:48:20;8.70;97.80
20057;DHT22;10189;49.546;7.906;2022-10-10T07:50:46;8.80;95.70
20057;DHT22;10189;49.546;7.906;2022-10-10T07:53:12;9.00;98.30
20057;DHT22;10189;49.546;7.906;2022-10-10T07:55:39;9.20;96.00
20057;DHT22;10189;49.546;7.906;2022-10-10T07:58:06;9.30;94.20
20057;DHT22;10189;49.546;7.906;2022-10-10T08:00:33;9.30;94.90
20057;DHT22;10189;49.546;7.906;2022-10-10T08:03:00;9.60;93.40
20057;DHT22;10189;49.546;7.906;2022-10-10T08:05:26;9.80;94.60
20057;DHT22;10189;49.546;7.906;2022-10-10T08:07:52;10.00;93.70
20057;DHT22;10189;49.546;7.906;2022-10-10T08:10:18;10.10;91.70
20057;DHT22;10189;49.546;7.906;2022-10-10T08:12:45;10.20;90.30
20057;DHT22;10189;49.546;7.906;2022-10-10T08:15:11;10.30;89.50
20057;DHT22;10189;49.546;7.906;2022-10-10T08:17:37;10.40;89.30
20057;DHT22;10189;49.546;7.906;2022-10-10T08:20:04;10.50;87.60
20057;DHT22;10189;49.546;7.906;2022-10-10T08:22:30;10.50;86.40
20057;DHT22;10189;49.546;7.906;2022-10-10T08:24:56;10.40;86.80
20057;DHT22;10189;49.546;7.906;2022-10-10T08:27:22;10.50;86.90
20057;DHT22;10189;49.546;7.906;2022-10-10T08:29:48;10.40;88.10
20057;DHT22;10189;49.546;7.906;2022-10-10T08:32:14;10.30;88.00
20057;DHT22;10189;49.546;7.906;2022-10-10T08:34:40;10.30;89.00
20057;DHT22;10189;49.546;7.906;2022-10-10T08:37:06;10.30;90.20
20057;DHT22;10189;49.546;7.906;2022-10-10T08:39:32;10.50;89.40
20057;DHT22;10189;49.546;7.906;2022-10-10T08:42:00;10.70;88.00
20057;DHT22;10189;49.546;7.906;2022-10-10T08:44:40;10.80;87.70
20057;DHT22;10189;49.546;7.906;2022-10-10T08:47:14;11.00;86.70
20057;DHT22;10189;49.546;7.906;2022-10-10T08:49:57;11.00;88.00
20057;DHT22;10189;49.546;7.906;2022-10-10T08:52:38;11.20;90.10
20057;DHT22;10189;49.546;7.906;2022-10-10T08:55:25;11.70;93.90
20057;DHT22;10189;49.546;7.906;2022-10-10T09:01:15;12.20;90.60
20057;DHT22;10189;49.546;7.906;2022-10-10T09:03:46;12.70;90.40
20057;DHT22;10189;49.546;7.906;2022-10-10T09:11:51;13.50;87.00
20057;DHT22;10189;49.546;7.906;2022-10-10T09:23:07;14.50;83.30
20057;DHT22;10189;49.546;7.906;2022-10-10T09:26:06;14.70;81.00
20057;DHT22;10189;49.546;7.906;2022-10-10T09:31:41;14.90;80.30
20057;DHT22;10189;49.546;7.906;2022-10-10T09:34:22;14.80;80.80
20057;DHT22;10189;49.546;7.906;2022-10-10T09:37:02;15.00;80.30
20057;DHT22;10189;49.546;7.906;2022-10-10T09:39:42;15.10;80.50
20057;DHT22;10189;49.546;7.906;2022-10-10T09:42:16;15.30;81.30
20057;DHT22;10189;49.546;7.906;2022-10-10T09:44:45;15.40;80.40
20057;DHT22;10189;49.546;7.906;2022-10-10T09:47:13;15.40;79.60
20057;DHT22;10189;49.546;7.906;2022-10-10T09:49:42;15.30;79.60
20057;DHT22;10189;49.546;7.906;2022-10-10T09:52:29;15.20;78.80
20057;DHT22;10189;49.546;7.906;2022-10-10T09:55:02;15.10;80.90
20057;DHT22;10189;49.546;7.906;2022-10-10T09:57:34;15.10;81.30
20057;DHT22;10189;49.546;7.906;2022-10-10T10:05:35;15.40;80.90
20057;DHT22;10189;49.546;7.906;2022-10-10T10:08:03;15.50;80.30
20057;DHT22;10189;49.546;7.906;2022-10-10T10:10:33;15.60;78.30
20057;DHT22;10189;49.546;7.906;2022-10-10T10:13:00;15.50;79.00
20057;DHT22;10189;49.546;7.906;2022-10-10T10:15:29;15.50;80.30
20057;DHT22;10189;49.546;7.906;2022-10-10T10:18:24;15.60;79.50
20057;DHT22;10189;49.546;7.906;2022-10-10T10:21:17;15.60;79.60
20057;DHT22;10189;49.546;7.906;2022-10-10T10:41:04;16.60;75.40
20057;DHT22;10189;49.546;7.906;2022-10-10T10:44:11;16.70;74.80
20057;DHT22;10189;49.546;7.906;2022-10-10T10:58:34;16.70;73.60
20057;DHT22;10189;49.546;7.906;2022-10-10T11:01:26;16.70;73.40
20057;DHT22;10189;49.546;7.906;2022-10-10T11:07:24;16.90;74.80
20057;DHT22;10189;49.546;7.906;2022-10-10T11:10:06;17.10;74.00
20057;DHT22;10189;49.546;7.906;2022-10-10T11:23:00;17.90;72.80
20057;DHT22;10189;49.546;7.906;2022-10-10T11:25:34;18.10;71.40
20057;DHT22;10189;49.546;7.906;2022-10-10T11:28:17;18.10;68.80
20057;DHT22;10189;49.546;7.906;2022-10-10T11:31:01;17.90;68.80
20057;DHT22;10189;49.546;7.906;2022-10-10T11:33:39;18.00;70.90
20057;DHT22;10189;49.546;7.906;2022-10-10T11:36:20;18.30;69.10
20057;DHT22;10189;49.546;7.906;2022-10-10T11:38:55;18.40;70.50
20057;DHT22;10189;49.546;7.906;2022-10-10T11:41:28;18.50;68.60
20057;DHT22;10189;49.546;7.906;2022-10-10T11:44:10;18.60;67.50
20057;DHT22;10189;49.546;7.906;2022-10-10T11:49:45;18.90;66.20
20057;DHT22;10189;49.546;7.906;2022-10-10T11:52:51;18.90;65.50
20057;DHT22;10189;49.546;7.906;2022-10-10T11:58:53;19.00;64.00
20057;DHT22;10189;49.546;7.906;2022-10-10T12:04:00;18.70;63.70
20057;DHT22;10189;49.546;7.906;2022-10-10T12:06:33;18.60;63.80
20057;DHT22;10189;49.546;7.906;2022-10-10T12:09:07;18.70;64.00
20057;DHT22;10189;49.546;7.906;2022-10-10T12:11:51;18.70;63.90
20057;DHT22;10189;49.546;7.906;2022-10-10T12:14:20;18.70;63.20
20057;DHT22;10189;49.546;7.906;2022-10-10T12:16:47;18.80;63.60
20057;DHT22;10189;49.546;7.906;2022-10-10T12:19:17;18.80;62.70
20057;DHT22;10189;49.546;7.906;2022-10-10T12:24:37;19.00;61.60
20057;DHT22;10189;49.546;7.906;2022-10-10T12:28:00;19.10;60.80
20057;DHT22;10189;49.546;7.906;2022-10-10T12:49:58;19.80;54.90
20057;DHT22;10189;49.546;7.906;2022-10-10T12:52:35;19.80;54.50
20057;DHT22;10189;49.546;7.906;2022-10-10T12:55:39;20.00;53.70
20057;DHT22;10189;49.546;7.906;2022-10-10T13:00:58;20.20;53.60
20057;DHT22;10189;49.546;7.906;2022-10-10T13:06:33;20.20;54.60
20057;DHT22;10189;49.546;7.906;2022-10-10T13:09:09;20.00;54.20
20057;DHT22;10189;49.546;7.906;2022-10-10T13:11:58;20.10;53.20
20057;DHT22;10189;49.546;7.906;2022-10-10T13:14:37;20.10;55.20
20057;DHT22;10189;49.546;7.906;2022-10-10T13:19:49;20.20;52.30
20057;DHT22;10189;49.546;7.906;2022-10-10T13:22:16;20.30;54.30
20057;DHT22;10189;49.546;7.906;2022-10-10T13:24:45;20.30;54.70
20057;DHT22;10189;49.546;7.906;2022-10-10T13:27:24;20.40;52.70
20057;DHT22;10189;49.546;7.906;2022-10-10T13:29:53;20.40;51.50
20057;DHT22;10189;49.546;7.906;2022-10-10T13:32:31;20.30;51.10
20057;DHT22;10189;49.546;7.906;2022-10-10T13:35:03;20.30;50.50
20057;DHT22;10189;49.546;7.906;2022-10-10T13:37:40;20.30;50.30
20057;DHT22;10189;49.546;7.906;2022-10-10T13:40:15;20.60;50.70
20057;DHT22;10189;49.546;7.906;2022-10-10T13:42:42;20.90;50.70
20057;DHT22;10189;49.546;7.906;2022-10-10T13:50:34;20.50;51.90
20057;DHT22;10189;49.546;7.906;2022-10-10T13:53:22;20.50;52.60
20057;DHT22;10189;49.546;7.906;2022-10-10T13:56:11;20.40;52.10
20057;DHT22;10189;49.546;7.906;2022-10-10T14:01:31;20.40;53.20
20057;DHT22;10189;49.546;7.906;2022-10-10T14:06:38;20.40;54.20
20057;DHT22;10189;49.546;7.906;2022-10-10T14:09:14;20.30;54.20
20057;DHT22;10189;49.546;7.906;2022-10-10T14:11:48;20.10;54.50
20057;DHT22;10189;49.546;7.906;2022-10-10T14:14:21;19.90;56.70
20057;DHT22;10189;49.546;7.906;2022-10-10T14:17:01;19.90;56.80
20057;DHT22;10189;49.546;7.906;2022-10-10T14:19:29;19.90;55.90
20057;DHT22;10189;49.546;7.906;2022-10-10T14:21:56;19.80;57.00
20057;DHT22;10189;49.546;7.906;2022-10-10T14:24:22;19.70;57.90
20057;DHT22;10189;49.546;7.906;2022-10-10T14:26:48;19.60;57.50
20057;DHT22;10189;49.546;7.906;2022-10-10T14:29:16;19.50;57.60
20057;DHT22;10189;49.546;7.906;2022-10-10T14:31:43;19.60;57.50
20057;DHT22;10189;49.546;7.906;2022-10-10T14:34:10;19.70;56.80
20057;DHT22;10189;49.546;7.906;2022-10-10T14:36:43;19.70;56.80
20057;DHT22;10189;49.546;7.906;2022-10-10T14:39:14;19.60;57.20
20057;DHT22;10189;49.546;7.906;2022-10-10T14:41:42;19.70;58.80
20057;DHT22;10189;49.546;7.906;2022-10-10T14:44:08;19.70;58.30
20057;DHT22;10189;49.546;7.906;2022-10-10T14:46:35;19.90;57.70
20057;DHT22;10189;49.546;7.906;2022-10-10T14:49:02;20.00;56.60
20057;DHT22;10189;49.546;7.906;2022-10-10T14:51:28;20.00;57.60
20057;DHT22;10189;49.546;7.906;2022-10-10T14:53:54;20.00;57.80
20057;DHT22;10189;49.546;7.906;2022-10-10T14:56:20;20.10;58.20
20057;DHT22;10189;49.546;7.906;2022-10-10T14:58:48;20.20;58.10
20057;DHT22;10189;49.546;7.906;2022-10-10T15:01:15;20.20;59.20
20057;DHT22;10189;49.546;7.906;2022-10-10T15:03:40;20.10;59.90
20057;DHT22;10189;49.546;7.906;2022-10-10T15:06:08;20.10;58.50
20057;DHT22;10189;49.546;7.906;2022-10-10T15:08:36;20.00;59.60
20057;DHT22;10189;49.546;7.906;2022-10-10T15:11:02;19.80;59.70
20057;DHT22;10189;49.546;7.906;2022-10-10T15:13:28;19.70;60.70
20057;DHT22;10189;49.546;7.906;2022-10-10T15:15:54;19.60;61.20
20057;DHT22;10189;49.546;7.906;2022-10-10T15:18:19;19.40;60.30
20057;DHT22;10189;49.546;7.906;2022-10-10T15:20:45;19.40;62.10
20057;DHT22;10189;49.546;7.906;2022-10-10T15:23:11;19.40;61.00
20057;DHT22;10189;49.546;7.906;2022-10-10T15:25:41;19.30;62.70
20057;DHT22;10189;49.546;7.906;2022-10-10T15:28:08;19.10;63.20
20057;DHT22;10189;49.546;7.906;2022-10-10T15:30:34;19.00;62.90
20057;DHT22;10189;49.546;7.906;2022-10-10T15:33:00;19.00;63.30
20057;DHT22;10189;49.546;7.906;2022-10-10T15:35:26;18.80;63.60
20057;DHT22;10189;49.546;7.906;2022-10-10T15:37:52;18.70;64.00
20057;DHT22;10189;49.546;7.906;2022-10-10T15:40:22;18.60;64.80
20057;DHT22;10189;49.546;7.906;2022-10-10T15:42:49;18.60;65.60
20057;DHT22;10189;49.546;7.906;2022-10-10T15:45:16;18.50;66.30
20057;DHT22;10189;49.546;7.906;2022-10-10T15:47:43;18.40;66.90
20057;DHT22;10189;49.546;7.906;2022-10-10T15:50:10;18.40;66.00
20057;DHT22;10189;49.546;7.906;2022-10-10T15:52:36;18.30;66.90
20057;DHT22;10189;49.546;7.906;2022-10-10T15:55:04;18.20;67.80
20057;DHT22;10189;49.546;7.906;2022-10-10T15:57:30;18.10;68.90
20057;DHT22;10189;49.546;7.906;2022-10-10T15:59:56;18.00;69.80
20057;DHT22;10189;49.546;7.906;2022-10-10T16:02:22;17.90;70.70
20057;DHT22;10189;49.546;7.906;2022-10-10T16:04:48;17.80;71.70
20057;DHT22;10189;49.546;7.906;2022-10-10T16:07:14;17.60;72.70
20057;DHT22;10189;49.546;7.906;2022-10-10T16:09:40;17.50;73.30
20057;DHT22;10189;49.546;7.906;2022-10-10T16:12:06;17.30;73.80
20057;DHT22;10189;49.546;7.906;2022-10-10T16:14:32;17.20;74.30
20057;DHT22;10189;49.546;7.906;2022-10-10T16:16:58;17.10;74.70
20057;DHT22;10189;49.546;7.906;2022-10-10T16:19:25;17.00;75.00
20057;DHT22;10189;49.546;7.906;2022-10-10T16:21:51;16.90;75.30
20057;DHT22;10189;49.546;7.906;2022-10-10T16:24:17;16.90;76.10
20057;DHT22;10189;49.546;7.906;2022-10-10T16:26:43;16.80;76.90
20057;DHT22;10189;49.546;7.906;2022-10-10T16:29:12;16.70;77.60
20057;DHT22;10189;49.546;7.906;2022-10-10T16:31:39;16.60;77.80
20057;DHT22;10189;49.546;7.906;2022-10-10T16:34:07;16.50;78.20
20057;DHT22;10189;49.546;7.906;2022-10-10T16:36:35;16.40;78.80
20057;DHT22;10189;49.546;7.906;2022-10-10T16:39:02;16.30;79.50
20057;DHT22;10189;49.546;7.906;2022-10-10T16:41:31;16.30;80.00
20057;DHT22;10189;49.546;7.906;2022-10-10T16:43:58;16.20;80.40
20057;DHT22;10189;49.546;7.906;2022-10-10T16:46:25;16.20;80.60
20057;DHT22;10189;49.546;7.906;2022-10-10T16:48:52;16.10;80.90
20057;DHT22;10189;49.546;7.906;2022-10-10T16:51:21;16.10;81.20
20057;DHT22;10189;49.546;7.906;2022-10-10T16:53:48;16.00;81.40
20057;DHT22;10189;49.546;7.906;2022-10-10T16:56:17;15.90;81.40
20057;DHT22;10189;49.546;7.906;2022-10-10T16:58:44;15.80;81.40
20057;DHT22;10189;49.546;7.906;2022-10-10T17:01:14;15.70;81.80
20057;DHT22;10189;49.546;7.906;2022-10-10T17:03:42;15.60;82.40
20057;DHT22;10189;49.546;7.906;2022-10-10T17:06:10;15.50;82.90
20057;DHT22;10189;49.546;7.906;2022-10-10T17:08:39;15.50;83.00
20057;DHT22;10189;49.546;7.906;2022-10-10T17:11:05;15.40;83.40
20057;DHT22;10189;49.546;7.906;2022-10-10T17:13:34;15.30;83.70
20057;DHT22;10189;49.546;7.906;2022-10-10T17:16:05;15.30;84.00
20057;DHT22;10189;49.546;7.906;2022-10-10T17:18:34;15.20;84.30
20057;DHT22;10189;49.546;7.906;2022-10-10T17:21:01;15.10;84.70
20057;DHT22;10189;49.546;7.906;2022-10-10T17:23:30;15.10;85.00
20057;DHT22;10189;49.546;7.906;2022-10-10T17:25:56;15.00;85.30
20057;DHT22;10189;49.546;7.906;2022-10-10T17:28:22;15.00;85.60
20057;DHT22;10189;49.546;7.906;2022-10-10T17:30:49;14.90;85.90
20057;DHT22;10189;49.546;7.906;2022-10-10T17:33:17;14.90;86.10
20057;DHT22;10189;49.546;7.906;2022-10-10T17:35:46;14.80;86.40
20057;DHT22;10189;49.546;7.906;2022-10-10T17:38:15;14.80;86.50
20057;DHT22;10189;49.546;7.906;2022-10-10T17:40:43;14.80;87.00
20057;DHT22;10189;49.546;7.906;2022-10-10T17:43:20;14.70;87.20
20057;DHT22;10189;49.546;7.906;2022-10-10T17:45:48;14.70;87.60
20057;DHT22;10189;49.546;7.906;2022-10-10T17:48:16;14.70;88.00
20057;DHT22;10189;49.546;7.906;2022-10-10T17:50:44;14.70;88.50
20057;DHT22;10189;49.546;7.906;2022-10-10T17:53:11;14.70;89.00
20057;DHT22;10189;49.546;7.906;2022-10-10T17:55:40;14.70;89.10
20057;DHT22;10189;49.546;7.906;2022-10-10T17:58:07;14.80;89.60
20057;DHT22;10189;49.546;7.906;2022-10-10T18:00:33;14.80;90.10
20057;DHT22;10189;49.546;7.906;2022-10-10T18:03:05;14.80;90.40
20057;DHT22;10189;49.546;7.906;2022-10-10T18:05:35;14.70;91.00
20057;DHT22;10189;49.546;7.906;2022-10-10T18:08:03;14.70;91.50
20057;DHT22;10189;49.546;7.906;2022-10-10T18:10:31;14.70;91.90
20057;DHT22;10189;49.546;7.906;2022-10-10T18:13:01;14.60;92.10
20057;DHT22;10189;49.546;7.906;2022-10-10T18:15:28;14.60;92.60
20057;DHT22;10189;49.546;7.906;2022-10-10T18:17:55;14.60;92.70
20057;DHT22;10189;49.546;7.906;2022-10-10T18:20:21;14.70;92.50
20057;DHT22;10189;49.546;7.906;2022-10-10T18:22:47;14.70;92.20
20057;DHT22;10189;49.546;7.906;2022-10-10T18:25:14;14.60;92.10